Time;durP1;ratioP1;P1;durP2;ratioP2;P2;SDS_P1;SDS_P2;PMS_P1;PMS_P2;Temp;Humidity;BMP_temperature;BMP_pressure;BME280_temperature;BME280_humidity;BME280_pressure;Samples;Min_cycle;Max_cycle;Signal;HPM_P1;HPM_P2
2022/06/11 00:00:28;;;;;;;4.20;1.10;;;21.30;99.90;;;;;;4092622;28;20039;-70
2022/06/11 00:02:29;;;;;;;2.50;1.13;;;21.30;99.90;;;;;;4096293;28;20106;-70
2022/06/11 00:04:39;;;;;;;1.77;1.20;;;21.30;99.90;;;;;;4096928;28;20035;-69
2022/06/11 00:06:43;;;;;;;3.25;1.05;;;21.30;99.90;;;;;;4096195;28;20047;-70
2022/06/11 00:08:45;;;;;;;8.38;1.58;;;21.30;99.90;;;;;;4099396;28;20043;-70
2022/06/11 00:10:46;;;;;;;2.88;1.25;;;21.20;99.90;;;;;;4095981;28;20039;-69
2022/06/11 00:12:47;;;;;;;3.47;1.40;;;21.30;99.90;;;;;;4096670;28;20039;-70
2022/06/11 00:14:47;;;;;;;2.70;1.00;;;21.20;99.90;;;;;;4096893;28;20470;-70
2022/06/11 00:16:48;;;;;;;3.42;1.50;;;21.20;99.90;;;;;;4096177;28;20039;-69
2022/06/11 00:18:51;;;;;;;3.60;1.10;;;21.20;99.90;;;;;;4096627;28;20028;-70
2022/06/11 00:20:52;;;;;;;2.00;1.25;;;21.20;99.90;;;;;;4086695;29;20043;-69
2022/06/11 00:22:53;;;;;;;5.20;1.30;;;21.10;99.90;;;;;;4096955;28;20047;-69
2022/06/11 00:24:53;;;;;;;6.00;1.40;;;21.10;99.90;;;;;;4096607;28;20035;-69
2022/06/11 00:26:56;;;;;;;2.22;1.27;;;21.10;99.90;;;;;;4094965;28;20070;-70
2022/06/11 00:28:57;;;;;;;2.78;1.13;;;21.00;99.90;;;;;;4096495;28;20050;-70
2022/06/11 00:30:57;;;;;;;3.03;1.10;;;21.10;99.90;;;;;;4095992;28;20039;-70
2022/06/11 00:32:58;;;;;;;6.22;1.48;;;21.10;99.90;;;;;;4096329;28;20039;-70
2022/06/11 00:35:02;;;;;;;4.45;1.27;;;21.10;99.90;;;;;;4096727;28;20033;-70
2022/06/11 00:37:03;;;;;;;2.63;1.15;;;21.00;99.90;;;;;;4100638;28;20042;-70
2022/06/11 00:39:06;;;;;;;2.00;1.10;;;21.00;99.90;;;;;;4096534;28;20082;-70
2022/06/11 00:41:08;;;;;;;10.90;1.70;;;20.90;99.90;;;;;;4095722;28;20028;-70
2022/06/11 00:43:10;;;;;;;4.40;1.57;;;20.90;99.90;;;;;;4096535;28;20133;-69
2022/06/11 00:45:19;;;;;;;4.63;1.45;;;20.80;99.90;;;;;;4096008;28;20105;-70
2022/06/11 00:47:23;;;;;;;6.18;1.55;;;20.80;99.90;;;;;;4095271;28;20059;-69
2022/06/11 00:49:35;;;;;;;3.30;1.58;;;20.80;99.90;;;;;;4096334;28;20067;-69
2022/06/11 00:51:36;;;;;;;2.25;1.45;;;20.80;99.90;;;;;;4095485;28;20059;-69
2022/06/11 00:53:45;;;;;;;2.53;1.30;;;20.80;99.90;;;;;;4096189;28;20066;-70
2022/06/11 00:55:48;;;;;;;3.78;1.80;;;20.80;99.90;;;;;;4096761;28;20114;-69
2022/06/11 00:57:59;;;;;;;5.57;1.30;;;20.80;99.90;;;;;;4096234;28;20376;-69
2022/06/11 01:00:07;;;;;;;2.17;1.02;;;20.70;99.90;;;;;;4098524;28;20162;-70
2022/06/11 01:02:08;;;;;;;3.47;1.23;;;20.70;99.90;;;;;;4095590;28;20047;-70
2022/06/11 01:04:45;;;;;;;2.53;1.58;;;20.70;99.90;;;;;;4097823;28;20036;-70
2022/06/11 01:06:53;;;;;;;3.67;1.50;;;20.70;99.90;;;;;;4096290;28;20394;-70
2022/06/11 01:09:01;;;;;;;4.18;1.80;;;20.70;99.90;;;;;;4099515;28;20046;-69
2022/06/11 01:11:15;;;;;;;2.53;1.35;;;20.70;99.90;;;;;;4095402;28;20093;-70
2022/06/11 01:13:31;;;;;;;4.10;1.33;;;20.60;99.90;;;;;;4098850;28;20039;-70
2022/06/11 01:15:39;;;;;;;4.72;1.50;;;20.60;99.90;;;;;;4084587;29;20043;-69
2022/06/11 01:17:49;;;;;;;3.90;1.52;;;20.60;99.90;;;;;;4098633;28;20509;-70
2022/06/11 01:20:12;;;;;;;5.15;1.60;;;20.60;99.90;;;;;;4099616;28;20047;-69
2022/06/11 01:22:49;;;;;;;2.72;1.25;;;20.60;99.90;;;;;;4098778;28;20509;-69
2022/06/11 01:25:00;;;;;;;2.40;0.95;;;20.60;99.90;;;;;;4100000;28;20039;-69
2022/06/11 01:27:22;;;;;;;3.38;1.40;;;20.60;99.90;;;;;;4098746;28;20034;-70
2022/06/11 01:29:36;;;;;;;3.70;1.35;;;20.60;99.90;;;;;;4099005;28;20030;-69
2022/06/11 01:31:49;;;;;;;5.05;1.77;;;20.60;99.90;;;;;;4098165;28;20395;-70
2022/06/11 01:34:10;;;;;;;4.00;1.38;;;20.50;99.90;;;;;;4098435;28;20027;-69
2022/06/11 01:36:18;;;;;;;2.45;1.35;;;20.50;99.90;;;;;;4097246;28;20027;-69
2022/06/11 01:38:26;;;;;;;2.10;1.25;;;20.50;99.90;;;;;;4095611;28;20054;-70
2022/06/11 01:41:10;;;;;;;1.77;1.25;;;20.50;99.90;;;;;;4096370;28;20038;-70
2022/06/11 01:43:28;;;;;;;3.05;1.45;;;20.50;99.90;;;;;;4040060;29;20092;-69
2022/06/11 01:45:32;;;;;;;2.10;1.60;;;20.50;99.90;;;;;;4038911;29;20047;-70
2022/06/11 01:47:34;;;;;;;3.60;1.80;;;20.50;99.90;;;;;;4046264;28;20163;-69
2022/06/11 01:49:43;;;;;;;1.77;1.27;;;20.40;99.90;;;;;;4098662;28;20043;-70
2022/06/11 01:52:17;;;;;;;6.55;1.63;;;20.40;99.90;;;;;;4097896;28;20039;-69
2022/06/11 01:54:33;;;;;;;3.60;1.73;;;20.30;99.90;;;;;;4085850;29;20091;-69
2022/06/11 01:56:55;;;;;;;4.43;1.60;;;20.30;99.90;;;;;;4101537;28;20058;-69
2022/06/11 01:59:07;;;;;;;3.65;1.88;;;20.20;99.90;;;;;;4098262;28;20043;-71
2022/06/11 02:01:14;;;;;;;3.30;1.40;;;20.20;99.90;;;;;;4097843;28;20035;-70
2022/06/11 02:03:23;;;;;;;2.65;1.50;;;20.20;99.90;;;;;;4098808;28;20042;-69
2022/06/11 02:05:39;;;;;;;2.55;1.73;;;20.20;99.90;;;;;;4098489;28;20093;-69
2022/06/11 02:08:00;;;;;;;3.28;1.60;;;20.10;99.90;;;;;;4098297;28;20040;-69
2022/06/11 02:10:10;;;;;;;3.60;1.83;;;20.10;99.90;;;;;;4098295;28;20024;-70
2022/06/11 02:12:23;;;;;;;4.05;1.63;;;20.10;99.90;;;;;;4097999;28;20114;-70
2022/06/11 02:14:39;;;;;;;4.50;1.85;;;20.00;99.90;;;;;;4097678;28;20042;-69
2022/06/11 02:16:48;;;;;;;3.53;1.70;;;20.00;99.90;;;;;;4097054;28;20040;-70
2022/06/11 02:18:50;;;;;;;7.30;1.80;;;19.90;99.90;;;;;;4098329;28;20069;-69
2022/06/11 02:21:01;;;;;;;3.47;1.73;;;19.90;99.90;;;;;;4097720;28;20443;-69
2022/06/11 02:23:22;;;;;;;2.70;1.60;;;19.80;99.90;;;;;;4098251;28;20043;-69
2022/06/11 02:25:39;;;;;;;3.55;1.48;;;19.80;99.90;;;;;;4094747;28;20469;-69
2022/06/11 02:27:43;;;;;;;3.40;1.50;;;19.80;99.90;;;;;;4098144;28;20049;-69
2022/06/11 02:29:44;;;;;;;3.17;1.80;;;19.80;99.90;;;;;;4098374;28;20047;-69
2022/06/11 02:31:57;;;;;;;3.27;1.53;;;19.80;99.90;;;;;;4097541;28;20039;-69
2022/06/11 02:34:02;;;;;;;;;;;19.80;99.90;;;;;;4098355;28;20399;-70
2022/06/11 02:36:14;;;;;;;4.97;1.95;;;19.80;99.90;;;;;;4097706;28;19920;-69
2022/06/11 02:38:18;;;;;;;4.90;1.80;;;19.80;99.90;;;;;;4097867;28;20486;-69
2022/06/11 02:40:27;;;;;;;3.97;1.80;;;19.70;99.90;;;;;;4096804;28;20031;-69
2022/06/11 02:42:28;;;;;;;2.47;1.42;;;19.70;99.90;;;;;;4100895;28;20039;-70
2022/06/11 02:44:29;;;;;;;4.90;1.83;;;19.70;99.90;;;;;;4098185;28;20043;-69
2022/06/11 02:46:41;;;;;;;2.78;1.50;;;19.70;99.90;;;;;;4097561;28;20035;-69
2022/06/11 02:48:42;;;;;;;3.30;1.85;;;19.70;99.90;;;;;;4097902;28;20051;-69
2022/06/11 02:50:43;;;;;;;3.92;1.90;;;19.70;99.90;;;;;;4097514;28;20066;-69
2022/06/11 02:52:44;;;;;;;1.98;1.70;;;19.70;99.90;;;;;;4100008;28;20066;-69
2022/06/11 02:54:46;;;;;;;4.30;2.25;;;19.60;99.90;;;;;;4098111;28;20521;-69
2022/06/11 02:56:49;;;;;;;4.25;2.05;;;19.60;99.90;;;;;;4097674;28;20115;-69
2022/06/11 02:58:49;;;;;;;;;;;19.60;99.90;;;;;;4097950;28;20039;-69
2022/06/11 03:00:50;;;;;;;4.32;1.75;;;19.60;99.90;;;;;;4097308;28;19914;-69
2022/06/11 03:02:51;;;;;;;8.05;2.72;;;19.50;99.90;;;;;;4098619;28;20035;-69
2022/06/11 03:04:53;;;;;;;4.82;2.00;;;19.50;99.90;;;;;;4097654;28;20054;-69
2022/06/11 03:06:55;;;;;;;4.95;2.13;;;19.50;99.90;;;;;;4097026;28;20482;-69
2022/06/11 03:08:57;;;;;;;4.80;2.08;;;19.50;99.90;;;;;;4097575;28;20035;-69
2022/06/11 03:10:57;;;;;;;4.63;1.80;;;19.40;99.90;;;;;;4096977;28;20139;-70
2022/06/11 03:12:58;;;;;;;5.13;1.92;;;19.40;99.90;;;;;;4097776;28;20039;-70
2022/06/11 03:14:59;;;;;;;2.55;1.83;;;19.40;99.90;;;;;;4097272;28;20553;-70
2022/06/11 03:17:00;;;;;;;4.13;1.70;;;19.50;99.90;;;;;;4085196;29;20038;-70
2022/06/11 03:19:00;;;;;;;5.68;2.20;;;19.40;99.90;;;;;;4097760;28;20038;-69
2022/06/11 03:21:01;;;;;;;2.90;2.00;;;19.40;99.90;;;;;;4096901;28;20142;-70
2022/06/11 03:23:02;;;;;;;6.15;2.30;;;19.40;99.90;;;;;;4100686;28;20059;-69
2022/06/11 03:25:03;;;;;;;3.65;1.98;;;19.40;99.90;;;;;;4097249;28;20089;-72
2022/06/11 03:27:05;;;;;;;4.28;1.75;;;19.40;99.90;;;;;;4096802;28;20023;-69
2022/06/11 03:32:03;;;;;;;4.13;1.80;;;19.40;99.90;;;;;;4089249;28;20031;-69
2022/06/11 03:34:04;;;;;;;5.03;1.98;;;19.40;99.90;;;;;;4094890;28;20034;-69
2022/06/11 03:36:08;;;;;;;2.83;1.60;;;19.40;99.90;;;;;;4096520;28;20130;-69
2022/06/11 03:38:09;;;;;;;2.35;1.80;;;19.40;99.90;;;;;;4084924;28;20028;-69
2022/06/11 03:40:11;;;;;;;4.05;2.00;;;19.40;99.90;;;;;;4096597;28;20042;-70
2022/06/11 03:42:13;;;;;;;6.38;2.47;;;19.40;99.90;;;;;;4096516;28;20046;-69
2022/06/11 03:44:14;;;;;;;2.35;1.80;;;19.30;99.90;;;;;;4085763;29;20031;-69
2022/06/11 03:46:16;;;;;;;3.50;1.80;;;19.30;99.90;;;;;;4089258;28;20031;-69
2022/06/11 03:48:18;;;;;;;4.47;1.50;;;19.30;99.90;;;;;;4097301;28;20108;-69
2022/06/11 03:50:24;;;;;;;4.40;1.90;;;19.30;99.90;;;;;;4096284;28;20030;-69
2022/06/11 03:52:27;;;;;;;4.93;1.70;;;19.30;99.90;;;;;;4093421;28;20027;-69
2022/06/11 03:54:28;;;;;;;4.40;1.90;;;19.30;99.90;;;;;;4096744;28;20054;-69
2022/06/11 03:56:29;;;;;;;4.07;2.00;;;19.30;99.90;;;;;;4096507;28;20028;-69
2022/06/11 03:58:30;;;;;;;3.75;2.25;;;19.30;99.90;;;;;;4096428;28;20039;-70
2022/06/11 04:02:51;;;;;;;4.63;2.25;;;19.30;99.90;;;;;;4091663;28;20047;-69
2022/06/11 04:04:51;;;;;;;4.32;2.10;;;19.20;99.90;;;;;;4097049;28;20403;-69
2022/06/11 04:06:58;;;;;;;6.43;2.08;;;19.30;99.90;;;;;;4096442;28;20039;-69
2022/06/11 04:09:00;;;;;;;4.78;2.22;;;19.30;99.90;;;;;;4096412;28;20023;-71
2022/06/11 04:11:02;;;;;;;3.85;1.80;;;19.30;99.90;;;;;;4096924;28;20051;-69
2022/06/11 04:13:04;;;;;;;4.10;1.83;;;19.20;99.90;;;;;;4096754;28;20452;-69
2022/06/11 04:15:05;;;;;;;2.72;1.60;;;19.30;99.90;;;;;;4096318;28;20035;-71
2022/06/11 04:17:10;;;;;;;3.97;2.10;;;19.20;99.90;;;;;;4096396;28;20048;-70
2022/06/11 04:19:29;;;;;;;5.38;2.20;;;19.20;99.90;;;;;;4096616;28;20042;-70
2022/06/11 04:21:32;;;;;;;2.95;1.88;;;19.20;99.90;;;;;;4098648;28;20138;-70
2022/06/11 04:23:34;;;;;;;5.15;2.20;;;19.20;99.90;;;;;;4096731;28;20051;-69
2022/06/11 04:25:35;;;;;;;4.25;2.40;;;19.20;99.90;;;;;;4091801;28;20043;-69
2022/06/11 04:27:35;;;;;;;2.95;1.98;;;19.20;99.90;;;;;;4096798;28;20119;-69
2022/06/11 04:29:39;;;;;;;4.53;1.98;;;19.20;99.90;;;;;;4096323;28;20052;-69
2022/06/11 04:31:40;;;;;;;2.35;1.98;;;19.20;99.90;;;;;;4098858;28;20035;-69
2022/06/11 04:33:47;;;;;;;5.68;2.25;;;19.20;99.90;;;;;;4097055;28;20036;-69
2022/06/11 04:35:48;;;;;;;5.53;2.53;;;19.30;99.90;;;;;;4096277;28;20047;-69
2022/06/11 04:37:49;;;;;;;5.40;1.95;;;19.20;99.90;;;;;;4086177;29;20035;-69
2022/06/11 04:39:53;;;;;;;3.13;1.95;;;19.20;99.90;;;;;;4096079;28;20569;-69
2022/06/11 04:41:55;;;;;;;5.72;2.05;;;19.20;99.90;;;;;;4086909;28;20055;-69
2022/06/11 04:43:57;;;;;;;2.83;1.95;;;19.30;99.90;;;;;;4096507;28;20043;-69
2022/06/11 04:45:57;;;;;;;5.60;2.25;;;19.30;99.90;;;;;;4095920;28;20522;-69
2022/06/11 04:47:58;;;;;;;4.93;2.08;;;19.30;99.90;;;;;;4096202;28;20047;-69
2022/06/11 04:50:05;;;;;;;3.03;2.03;;;19.20;99.90;;;;;;4090023;28;20038;-69
2022/06/11 04:52:06;;;;;;;4.05;2.08;;;19.20;99.90;;;;;;4093156;28;20447;-69
2022/06/11 04:54:07;;;;;;;3.40;1.95;;;19.20;99.90;;;;;;4092757;28;20122;-70
2022/06/11 04:56:07;;;;;;;3.55;1.95;;;19.30;99.90;;;;;;4095192;28;20059;-69
2022/06/11 04:58:08;;;;;;;4.35;2.25;;;19.30;99.90;;;;;;4096606;28;20126;-70
2022/06/11 05:00:11;;;;;;;4.82;2.38;;;19.30;99.90;;;;;;4095269;28;20036;-71
2022/06/11 05:02:12;;;;;;;4.35;1.85;;;19.30;99.90;;;;;;4094446;28;20050;-69
2022/06/11 05:04:13;;;;;;;3.70;1.90;;;19.30;99.90;;;;;;4095879;28;20613;-69
2022/06/11 05:06:17;;;;;;;6.18;2.50;;;19.30;99.90;;;;;;4095768;28;20398;-69
2022/06/11 05:08:17;;;;;;;5.55;2.15;;;19.30;99.90;;;;;;4096373;28;20019;-69
2022/06/11 05:10:21;;;;;;;8.18;2.80;;;19.20;99.90;;;;;;4083774;28;20039;-71
2022/06/11 05:12:22;;;;;;;3.20;2.05;;;19.20;99.90;;;;;;4093463;28;20058;-71
2022/06/11 05:14:23;;;;;;;5.47;2.28;;;19.20;99.90;;;;;;4095008;28;20035;-71
2022/06/11 05:16:24;;;;;;;3.53;2.00;;;19.20;99.90;;;;;;4095508;28;20378;-71
2022/06/11 05:18:27;;;;;;;4.25;2.10;;;19.20;99.90;;;;;;4096429;28;20028;-71
2022/06/11 05:20:28;;;;;;;2.92;2.10;;;19.30;99.90;;;;;;4095590;28;20119;-71
2022/06/11 05:22:29;;;;;;;5.07;2.03;;;19.30;99.90;;;;;;4094259;28;20039;-71
2022/06/11 05:24:30;;;;;;;5.43;2.20;;;19.30;99.90;;;;;;4098436;28;20043;-71
2022/06/11 05:26:35;;;;;;;3.70;2.05;;;19.30;99.90;;;;;;4093913;28;20117;-71
2022/06/11 05:28:36;;;;;;;5.78;2.15;;;19.30;99.90;;;;;;4096413;28;20038;-71
2022/06/11 05:30:37;;;;;;;3.47;1.80;;;19.30;99.90;;;;;;4096398;28;20035;-71
2022/06/11 05:32:40;;;;;;;5.10;2.00;;;19.30;99.90;;;;;;4096926;28;20036;-72
2022/06/11 05:34:41;;;;;;;3.22;1.80;;;19.40;99.90;;;;;;4096089;28;20040;-71
2022/06/11 05:36:41;;;;;;;3.17;1.73;;;19.30;99.90;;;;;;4095499;28;20047;-71
2022/06/11 05:38:42;;;;;;;6.30;2.45;;;19.40;99.90;;;;;;4094660;28;20046;-71
2022/06/11 05:40:45;;;;;;;2.47;1.60;;;19.40;99.90;;;;;;4094512;28;20035;-71
2022/06/11 05:42:47;;;;;;;3.22;1.65;;;19.40;99.90;;;;;;4095841;28;20046;-71
2022/06/11 05:44:48;;;;;;;;;;;19.40;99.90;;;;;;4096475;28;20042;-71
2022/06/11 05:46:49;;;;;;;2.80;1.88;;;19.40;99.90;;;;;;4095239;28;22917;-71
2022/06/11 05:48:58;;;;;;;3.58;2.00;;;19.40;99.90;;;;;;4095337;28;20039;-71
2022/06/11 05:50:59;;;;;;;3.70;2.00;;;19.50;99.90;;;;;;4097386;28;20051;-73
2022/06/11 05:53:01;;;;;;;4.35;2.08;;;19.50;99.90;;;;;;4097021;28;20031;-72
2022/06/11 05:55:02;;;;;;;5.20;2.10;;;19.50;99.90;;;;;;4098380;28;20047;-71
2022/06/11 05:57:06;;;;;;;4.10;2.17;;;19.50;99.90;;;;;;4098101;28;20027;-71
2022/06/11 05:59:13;;;;;;;4.05;1.98;;;19.50;99.90;;;;;;4097251;28;20454;-71
2022/06/11 06:01:24;;;;;;;2.78;1.90;;;19.60;99.90;;;;;;4097560;28;20123;-71
2022/06/11 06:03:25;;;;;;;3.75;1.90;;;19.60;99.90;;;;;;4098088;28;20394;-71
2022/06/11 06:05:29;;;;;;;5.85;2.10;;;19.60;99.90;;;;;;4097804;28;20055;-71
2022/06/11 06:07:29;;;;;;;4.78;1.92;;;19.60;99.90;;;;;;4096144;28;20483;-72
2022/06/11 06:09:30;;;;;;;5.22;1.90;;;19.60;99.90;;;;;;4098523;29;20106;-71
2022/06/11 06:11:30;;;;;;;4.72;2.08;;;19.60;99.90;;;;;;4097296;28;20077;-71
2022/06/11 06:13:49;;;;;;;2.85;2.10;;;19.70;99.90;;;;;;4098016;28;20047;-71
2022/06/11 06:15:51;;;;;;;4.15;2.17;;;19.70;99.90;;;;;;4095536;28;20035;-71
2022/06/11 06:17:53;;;;;;;7.28;2.38;;;19.70;99.90;;;;;;4096742;28;20548;-71
2022/06/11 06:19:53;;;;;;;6.28;1.90;;;19.70;99.90;;;;;;4098245;28;20028;-71
2022/06/11 06:21:54;;;;;;;5.10;2.17;;;19.70;99.90;;;;;;4096972;28;20035;-71
2022/06/11 06:23:55;;;;;;;6.80;2.38;;;19.70;99.90;;;;;;4098381;28;20053;-71
2022/06/11 06:25:55;;;;;;;4.43;2.17;;;19.70;99.90;;;;;;4097730;28;20387;-71
2022/06/11 06:27:56;;;;;;;5.10;2.08;;;19.70;99.90;;;;;;4096832;28;20214;-71
2022/06/11 06:29:57;;;;;;;3.72;1.98;;;19.70;99.90;;;;;;4083390;29;20078;-71
2022/06/11 06:31:58;;;;;;;6.65;2.65;;;19.60;99.90;;;;;;4098185;28;20046;-71
2022/06/11 06:34:01;;;;;;;3.33;1.98;;;19.60;99.90;;;;;;4098420;28;20040;-71
2022/06/11 06:36:03;;;;;;;2.95;2.08;;;19.60;99.90;;;;;;4097153;28;20517;-71
2022/06/11 06:38:04;;;;;;;6.55;2.90;;;19.60;99.90;;;;;;4083123;28;20032;-71
2022/06/11 06:40:05;;;;;;;3.25;1.90;;;19.60;99.90;;;;;;4095652;28;20042;-71
2022/06/11 06:42:07;;;;;;;3.30;2.03;;;19.60;99.90;;;;;;4096776;28;20035;-71
2022/06/11 06:44:07;;;;;;;7.05;2.30;;;19.60;99.90;;;;;;4081497;29;20391;-72
2022/06/11 06:46:08;;;;;;;6.13;2.75;;;19.50;99.90;;;;;;4096185;28;20027;-72
2022/06/11 06:48:09;;;;;;;4.43;2.30;;;19.50;99.90;;;;;;4089060;28;20115;-71
2022/06/11 06:50:10;;;;;;;6.05;2.25;;;19.50;99.90;;;;;;4075980;29;20036;-72
2022/06/11 06:52:10;;;;;;;4.03;2.05;;;19.50;99.90;;;;;;4093497;28;20115;-72
2022/06/11 06:54:11;;;;;;;5.32;2.15;;;19.60;99.90;;;;;;4075787;29;20059;-72
2022/06/11 06:56:12;;;;;;;3.60;2.10;;;19.70;99.90;;;;;;4077226;29;20044;-72
2022/06/11 06:58:15;;;;;;;4.32;2.20;;;19.70;99.90;;;;;;4081289;28;20440;-72
2022/06/11 07:00:17;;;;;;;5.10;2.08;;;19.80;99.90;;;;;;4078962;29;20075;-72
2022/06/11 07:02:18;;;;;;;5.85;2.50;;;19.80;99.90;;;;;;4084684;28;20044;-72
2022/06/11 07:04:19;;;;;;;4.20;2.38;;;19.80;99.90;;;;;;4082397;28;20391;-72
2022/06/11 07:06:19;;;;;;;7.10;2.67;;;19.80;99.90;;;;;;4081064;28;20171;-72
2022/06/11 07:08:20;;;;;;;7.22;3.10;;;19.80;99.90;;;;;;4079138;28;20045;-72
2022/06/11 07:10:24;;;;;;;5.93;2.35;;;19.80;99.90;;;;;;4081176;29;20054;-72
2022/06/11 07:12:25;;;;;;;3.85;2.47;;;19.90;99.90;;;;;;4082173;28;20123;-72
2022/06/11 07:14:25;;;;;;;3.83;2.22;;;19.90;99.90;;;;;;4081945;28;20666;-71
2022/06/11 07:16:33;;;;;;;5.70;2.58;;;19.90;99.90;;;;;;4082749;28;20028;-71
2022/06/11 07:18:47;;;;;;;5.65;2.63;;;20.00;99.90;;;;;;4083064;28;20036;-71
2022/06/11 07:20:49;;;;;;;5.63;2.25;;;20.00;99.90;;;;;;4081442;28;20035;-71
2022/06/11 07:22:55;;;;;;;3.80;2.60;;;20.10;99.90;;;;;;4081001;28;20059;-71
2022/06/11 07:24:56;;;;;;;5.53;2.55;;;20.10;99.90;;;;;;4081790;28;20150;-71
2022/06/11 07:27:01;;;;;;;5.20;2.47;;;20.20;99.90;;;;;;4081257;28;20054;-73
2022/06/11 07:29:09;;;;;;;5.45;2.22;;;20.20;99.90;;;;;;4073962;28;20404;-71
2022/06/11 07:31:11;;;;;;;3.88;1.83;;;20.30;99.90;;;;;;4077325;28;20040;-72
2022/06/11 07:33:16;;;;;;;3.92;2.53;;;20.40;99.90;;;;;;4080147;29;20039;-73
2022/06/11 07:35:18;;;;;;;8.05;2.50;;;20.50;99.90;;;;;;4079116;28;20079;-71
2022/06/11 07:37:19;;;;;;;4.30;2.00;;;20.60;99.90;;;;;;4081743;28;20051;-72
2022/06/11 07:39:20;;;;;;;5.72;2.30;;;20.60;99.90;;;;;;4076945;29;20039;-70
2022/06/11 07:41:20;;;;;;;5.13;1.95;;;20.60;99.90;;;;;;4079022;28;20055;-69
2022/06/11 07:43:21;;;;;;;4.95;2.13;;;20.60;99.90;;;;;;4075734;28;20047;-72
2022/06/11 07:45:22;;;;;;;4.93;1.80;;;20.60;99.90;;;;;;4074048;29;20043;-72
2022/06/11 07:49:42;;;;;;;4.32;1.92;;;20.60;99.90;;;;;;4077463;28;20047;-72
2022/06/11 07:51:43;;;;;;;4.32;1.98;;;20.60;99.90;;;;;;4080561;28;20091;-72
2022/06/11 07:53:48;;;;;;;4.65;2.00;;;20.70;99.90;;;;;;4079362;29;20043;-72
2022/06/11 07:55:51;;;;;;;5.72;1.85;;;20.70;99.90;;;;;;4090648;28;20062;-71
2022/06/11 07:57:53;;;;;;;4.65;1.77;;;20.80;99.90;;;;;;4078236;29;20092;-71
2022/06/11 07:59:53;;;;;;;5.90;2.33;;;20.90;99.90;;;;;;4080546;29;20040;-71
2022/06/11 08:01:54;;;;;;;3.03;1.80;;;20.90;99.90;;;;;;4084062;28;20058;-71
2022/06/11 08:03:54;;;;;;;6.50;2.13;;;21.00;99.90;;;;;;4086493;28;20090;-71
2022/06/11 08:05:55;;;;;;;3.53;1.70;;;21.00;99.90;;;;;;4080635;28;20047;-72
2022/06/11 08:07:56;;;;;;;4.47;1.90;;;21.00;99.90;;;;;;4076485;28;20036;-71
2022/06/11 08:09:58;;;;;;;7.53;2.22;;;21.00;99.90;;;;;;4086120;28;20029;-72
2022/06/11 08:11:58;;;;;;;5.55;1.98;;;21.00;99.90;;;;;;4082400;29;20139;-71
2022/06/11 08:14:00;;;;;;;5.32;1.92;;;21.00;99.90;;;;;;4082014;28;20078;-71
2022/06/11 08:16:01;;;;;;;4.65;2.00;;;21.10;99.90;;;;;;4074304;29;20032;-71
2022/06/11 08:18:03;;;;;;;5.75;1.92;;;21.10;99.90;;;;;;4085363;28;20038;-71
2022/06/11 08:20:05;;;;;;;4.63;1.70;;;21.20;99.90;;;;;;4077298;29;20998;-73
2022/06/11 08:22:06;;;;;;;4.97;2.15;;;21.30;99.90;;;;;;4082334;28;20558;-70
2022/06/11 08:24:06;;;;;;;3.72;1.58;;;21.30;99.90;;;;;;4083608;28;20024;-71
2022/06/11 08:26:07;;;;;;;4.90;1.70;;;21.50;99.90;;;;;;4088580;28;20031;-71
2022/06/11 08:28:11;;;;;;;4.93;1.98;;;21.50;99.90;;;;;;4086131;28;20042;-70
2022/06/11 08:30:14;;;;;;;7.20;2.10;;;21.60;99.90;;;;;;4081695;28;20166;-71
2022/06/11 08:32:15;;;;;;;3.90;1.52;;;21.70;99.90;;;;;;4085226;28;20039;-70
2022/06/11 08:34:16;;;;;;;6.10;1.95;;;21.80;99.90;;;;;;4082654;28;20406;-70
2022/06/11 08:36:16;;;;;;;2.83;1.73;;;22.00;99.90;;;;;;4083613;29;20527;-71
2022/06/11 08:38:17;;;;;;;6.15;1.83;;;22.00;99.90;;;;;;4087570;28;20031;-70
2022/06/11 08:40:27;;;;;;;6.28;1.80;;;22.10;99.90;;;;;;4080406;28;20034;-70
2022/06/11 08:42:42;;;;;;;4.07;1.33;;;22.10;99.90;;;;;;4088152;28;20055;-71
2022/06/11 08:44:43;;;;;;;6.55;1.75;;;22.10;99.90;;;;;;4080584;28;20031;-70
2022/06/11 08:46:46;;;;;;;6.50;1.95;;;22.10;99.90;;;;;;4088467;28;20035;-70
2022/06/11 08:49:06;;;;;;;6.15;1.95;;;22.10;99.90;;;;;;4082749;28;20372;-70
2022/06/11 08:51:09;;;;;;;5.40;1.70;;;22.00;99.90;;;;;;4079644;28;20345;-71
2022/06/11 08:53:10;;;;;;;8.68;1.90;;;22.00;99.90;;;;;;4083406;28;20376;-70
2022/06/11 08:55:11;;;;;;;5.97;1.70;;;22.10;99.90;;;;;;4081726;28;20094;-71
2022/06/11 08:57:26;;;;;;;4.47;1.77;;;22.00;99.90;;;;;;4085516;28;20039;-70
2022/06/11 08:59:41;;;;;;;4.03;1.42;;;22.00;99.90;;;;;;4080244;29;20036;-70
2022/06/11 09:01:50;;;;;;;3.95;1.38;;;22.00;99.90;;;;;;4082489;28;20043;-71
2022/06/11 09:04:07;;;;;;;3.42;1.25;;;22.00;99.90;;;;;;4082676;28;20414;-70
2022/06/11 09:06:33;;;;;;;5.90;1.55;;;22.00;99.90;;;;;;4079868;28;20375;-71
2022/06/11 09:09:02;;;;;;;5.40;1.75;;;21.90;99.90;;;;;;4080310;28;20036;-71
2022/06/11 09:11:45;;;;;;;5.15;1.70;;;21.90;99.90;;;;;;4081332;28;20509;-71
2022/06/11 09:14:08;;;;;;;6.95;1.95;;;22.00;99.90;;;;;;4082414;28;20114;-70
2022/06/11 09:16:47;;;;;;;6.70;1.75;;;22.10;99.90;;;;;;4079270;28;20031;-70
2022/06/11 09:19:19;;;;;;;7.80;2.08;;;22.10;99.90;;;;;;4082968;29;20032;-70
2022/06/11 09:21:32;;;;;;;3.50;1.50;;;22.20;99.90;;;;;;4078637;28;20036;-70
2022/06/11 09:23:36;;;;;;;;;;;22.20;99.90;;;;;;4082508;28;20042;-71
2022/06/11 09:26:09;;;;;;;4.15;1.70;;;22.30;99.90;;;;;;4085379;28;20318;-70
2022/06/11 09:28:39;;;;;;;3.50;1.65;;;22.40;99.90;;;;;;4090943;28;20507;-70
2022/06/11 09:30:42;;;;;;;4.32;1.80;;;22.40;99.90;;;;;;4093348;28;20049;-70
2022/06/11 09:32:54;;;;;;;5.95;1.70;;;22.50;99.90;;;;;;4087611;28;20036;-71
2022/06/11 09:35:19;;;;;;;6.90;1.77;;;22.60;99.90;;;;;;4082922;28;20495;-71
2022/06/11 09:37:39;;;;;;;7.18;1.75;;;22.60;99.90;;;;;;4089926;29;20282;-71
2022/06/11 09:40:03;;;;;;;4.72;1.67;;;22.70;99.90;;;;;;4085917;28;20036;-70
2022/06/11 09:42:22;;;;;;;3.17;1.27;;;22.90;99.90;;;;;;4087957;28;20472;-70
2022/06/11 09:44:46;;;;;;;4.57;1.40;;;23.00;99.90;;;;;;4087074;28;20087;-70
2022/06/11 09:46:53;;;;;;;5.07;1.63;;;23.10;99.90;;;;;;4084530;28;20038;-71
2022/06/11 09:49:20;;;;;;;5.00;1.52;;;23.10;99.90;;;;;;4088378;28;20043;-71
2022/06/11 09:51:36;;;;;;;4.68;1.98;;;23.20;99.90;;;;;;4074977;28;20066;-70
2022/06/11 09:53:55;;;;;;;4.55;2.15;;;23.30;99.90;;;;;;4090505;28;20061;-71
2022/06/11 09:56:10;;;;;;;4.47;1.90;;;23.20;99.90;;;;;;4096613;28;20498;-70
2022/06/11 09:58:31;;;;;;;5.75;2.45;;;23.30;99.90;;;;;;4084004;29;20032;-71
2022/06/11 10:00:39;;;;;;;6.13;1.83;;;23.30;99.90;;;;;;4097383;28;20043;-70
2022/06/11 10:03:02;;;;;;;4.22;2.17;;;23.30;99.90;;;;;;4097351;28;20043;-71
2022/06/11 10:05:08;;;;;;;4.25;2.13;;;23.30;99.90;;;;;;4097305;28;20381;-71
2022/06/11 10:07:20;;;;;;;5.15;1.92;;;23.30;99.90;;;;;;4097942;28;20383;-70
2022/06/11 10:09:27;;;;;;;5.90;1.67;;;23.40;99.90;;;;;;4098057;28;20034;-71
2022/06/11 10:11:44;;;;;;;4.85;1.65;;;23.40;99.90;;;;;;4097882;28;20039;-70
2022/06/11 10:16:28;;;;;;;5.65;1.40;;;23.50;99.90;;;;;;4097731;28;20036;-71
2022/06/11 10:18:34;;;;;;;4.32;1.45;;;23.50;99.90;;;;;;4097932;28;20059;-71
2022/06/11 10:20:42;;;;;;;3.13;1.23;;;23.60;99.50;;;;;;4083239;29;20035;-71
2022/06/11 10:23:04;;;;;;;6.45;1.63;;;23.60;99.90;;;;;;4097712;28;20042;-71
2022/06/11 10:25:28;;;;;;;3.30;1.20;;;23.70;99.90;;;;;;4094970;28;20034;-72
2022/06/11 10:27:32;;;;;;;3.92;1.60;;;23.60;99.90;;;;;;4086619;28;20593;-71
2022/06/11 10:29:46;;;;;;;7.50;2.20;;;23.60;99.90;;;;;;4097985;28;20050;-70
2022/06/11 10:31:50;;;;;;;5.90;2.03;;;23.70;98.60;;;;;;4097304;28;20798;-70
2022/06/11 10:34:05;;;;;;;6.35;1.75;;;23.70;99.40;;;;;;4097381;28;20035;-70
2022/06/11 10:36:18;;;;;;;6.07;1.33;;;23.70;99.90;;;;;;4096102;28;20550;-70
2022/06/11 10:38:38;;;;;;;4.78;1.60;;;23.80;98.90;;;;;;4097554;28;20031;-71
2022/06/11 10:40:42;;;;;;;9.55;1.85;;;23.90;99.50;;;;;;4093684;28;20035;-71
2022/06/11 10:42:53;;;;;;;6.22;1.77;;;24.00;98.00;;;;;;4097593;28;20392;-71
2022/06/11 10:44:55;;;;;;;3.47;1.40;;;24.10;97.30;;;;;;4098161;28;20057;-71
2022/06/11 10:46:57;;;;;;;2.95;1.10;;;24.10;96.50;;;;;;4100836;28;20050;-71
2022/06/11 10:48:59;;;;;;;3.28;1.42;;;24.10;96.80;;;;;;4095416;28;20036;-71
2022/06/11 10:51:04;;;;;;;3.13;1.23;;;24.20;98.90;;;;;;4096133;28;20047;-70
2022/06/11 10:53:18;;;;;;;4.72;1.80;;;24.30;99.90;;;;;;4097270;28;20050;-70
2022/06/11 10:55:41;;;;;;;4.72;1.40;;;24.30;97.40;;;;;;4096847;28;20066;-71
2022/06/11 10:57:43;;;;;;;5.60;1.57;;;24.40;96.80;;;;;;4097009;28;20031;-72
2022/06/11 10:59:51;;;;;;;3.20;1.30;;;24.40;97.80;;;;;;4094424;28;20279;-71
2022/06/11 11:02:02;;;;;;;3.35;1.02;;;24.50;98.40;;;;;;4095432;28;20031;-70
2022/06/11 11:04:36;;;;;;;4.35;1.70;;;24.50;97.10;;;;;;4089587;28;20495;-70
2022/06/11 11:06:36;;;;;;;4.10;1.48;;;24.50;99.10;;;;;;4095271;28;20391;-71
2022/06/11 11:08:52;;;;;;;6.07;2.10;;;24.50;99.00;;;;;;4097248;28;20068;-71